createdAt,value
2019-03-12T00:00:29.529Z,11.90
2019-03-12T00:02:58.000Z,13.63
2019-03-12T00:05:26.517Z,13.33
2019-03-12T00:07:55.004Z,13.10
2019-03-12T00:10:23.505Z,12.33
2019-03-12T00:12:51.990Z,14.80
2019-03-12T00:15:20.495Z,14.83
2019-03-12T00:17:48.982Z,12.93
2019-03-12T00:20:17.551Z,18.53
2019-03-12T00:22:46.033Z,14.03
2019-03-12T00:25:15.627Z,14.00
2019-03-12T00:27:44.106Z,15.53
2019-03-12T00:30:12.862Z,15.13
2019-03-12T00:32:41.344Z,12.10
2019-03-12T00:35:10.125Z,15.47
2019-03-12T00:37:38.617Z,14.60
2019-03-12T00:40:08.849Z,15.70
2019-03-12T00:42:37.366Z,16.10
2019-03-12T00:45:08.703Z,15.33
2019-03-12T00:47:37.183Z,15.87
2019-03-12T00:50:08.101Z,17.00
2019-03-12T00:52:36.588Z,15.03
2019-03-12T00:55:06.702Z,13.50
2019-03-12T00:57:35.218Z,14.13
2019-03-12T01:00:06.274Z,14.50
2019-03-12T01:02:34.855Z,14.20
2019-03-12T01:05:03.416Z,18.63
2019-03-12T01:07:31.919Z,15.73
2019-03-12T01:10:00.403Z,13.47
2019-03-12T01:12:28.926Z,13.97
2019-03-12T01:14:57.406Z,17.73
2019-03-12T01:17:25.904Z,16.63
2019-03-12T01:19:54.420Z,17.17
2019-03-12T01:22:22.942Z,14.47
2019-03-12T01:24:51.413Z,15.10
2019-03-12T01:27:19.918Z,16.30
2019-03-12T01:29:48.402Z,14.23
2019-03-12T01:32:16.887Z,18.50
2019-03-12T01:34:45.361Z,16.53
2019-03-12T01:37:13.858Z,21.20
2019-03-12T01:39:42.337Z,17.53
2019-03-12T01:42:10.855Z,17.93
2019-03-12T01:44:39.404Z,15.43
2019-03-12T01:47:08.003Z,18.93
2019-03-12T01:49:36.472Z,15.83
2019-03-12T01:52:05.021Z,19.50
2019-03-12T01:54:33.489Z,17.73
2019-03-12T01:57:02.003Z,18.90
2019-03-12T01:59:30.483Z,20.30
2019-03-12T02:01:59.015Z,21.03
2019-03-12T02:04:27.499Z,18.77
2019-03-12T02:06:57.499Z,20.47
2019-03-12T02:09:26.341Z,20.27
2019-03-12T02:11:54.860Z,19.77
2019-03-12T02:14:25.304Z,18.93
2019-03-12T02:16:53.873Z,21.17
2019-03-12T02:19:22.406Z,18.07
2019-03-12T02:21:50.986Z,21.17
2019-03-12T02:24:19.508Z,18.90
2019-03-12T02:26:48.070Z,22.50
2019-03-12T02:29:16.517Z,22.80
2019-03-12T02:31:45.069Z,20.40
2019-03-12T02:34:13.552Z,19.73
2019-03-12T02:36:42.095Z,20.87
2019-03-12T02:39:11.449Z,21.97
2019-03-12T02:41:40.008Z,24.00
2019-03-12T02:44:08.607Z,21.57
2019-03-12T02:46:37.137Z,22.70
2019-03-12T02:49:09.188Z,23.27
2019-03-12T02:51:35.792Z,21.70
2019-03-12T02:54:05.808Z,22.80
2019-03-12T02:56:34.331Z,27.73
2019-03-12T02:59:02.821Z,21.77
2019-03-12T03:01:31.338Z,24.23
2019-03-12T03:03:59.868Z,23.07
2019-03-12T03:06:29.971Z,24.50
2019-03-12T03:08:58.495Z,25.33
2019-03-12T03:11:27.014Z,23.03
2019-03-12T03:13:55.503Z,26.47
2019-03-12T03:16:24.576Z,24.97
2019-03-12T03:18:53.371Z,26.17
2019-03-12T03:21:21.851Z,22.83
2019-03-12T03:23:50.350Z,25.27
2019-03-12T03:26:18.942Z,25.70
2019-03-12T03:28:47.403Z,23.97
2019-03-12T03:31:15.896Z,23.10
2019-03-12T03:33:44.421Z,22.57
2019-03-12T03:36:12.938Z,22.17
2019-03-12T03:38:41.450Z,23.70
2019-03-12T03:41:09.962Z,26.17
2019-03-12T03:43:38.476Z,23.03
2019-03-12T03:46:06.998Z,24.03
2019-03-12T03:48:35.488Z,27.90
2019-03-12T03:51:04.038Z,23.13
2019-03-12T03:53:32.545Z,25.57
2019-03-12T03:56:01.021Z,21.70
2019-03-12T03:58:29.502Z,25.43
2019-03-12T04:00:57.982Z,26.60
2019-03-12T04:03:26.517Z,22.43
2019-03-12T04:05:55.050Z,21.43
2019-03-12T04:08:23.564Z,22.70
2019-03-12T04:10:52.116Z,24.53
2019-03-12T04:13:20.592Z,22.73
2019-03-12T04:15:49.246Z,22.53
2019-03-12T04:18:17.759Z,22.23
2019-03-12T04:20:46.299Z,19.17
2019-03-12T04:23:16.244Z,20.53
2019-03-12T04:25:44.948Z,19.13
2019-03-12T04:28:13.459Z,21.57
2019-03-12T04:30:41.919Z,24.00
2019-03-12T04:33:33.090Z,24.73
2019-03-12T04:36:01.604Z,23.50
2019-03-12T04:38:30.094Z,20.57
2019-03-12T04:40:58.663Z,22.10
2019-03-12T04:43:27.158Z,21.13
2019-03-12T04:45:55.643Z,26.33
2019-03-12T04:48:24.178Z,20.00
2019-03-12T04:50:52.600Z,16.83
2019-03-12T04:53:21.101Z,19.33
2019-03-12T04:55:49.721Z,19.67
2019-03-12T04:58:18.238Z,23.17
2019-03-12T05:00:46.773Z,17.37
2019-03-12T05:03:15.250Z,15.77
2019-03-12T05:05:43.805Z,19.83
2019-03-12T05:08:12.272Z,17.07
2019-03-12T05:10:40.795Z,20.03
2019-03-12T05:13:09.250Z,17.67
2019-03-12T05:15:37.760Z,18.67
2019-03-12T05:18:06.206Z,14.57
2019-03-12T05:20:34.687Z,20.07
2019-03-12T05:23:03.164Z,15.00
2019-03-12T05:25:31.700Z,15.33
2019-03-12T05:28:00.198Z,16.07
2019-03-12T05:30:28.709Z,14.03
2019-03-12T05:32:57.266Z,15.90
2019-03-12T05:35:25.811Z,19.37
2019-03-12T05:37:54.256Z,15.57
2019-03-12T05:40:22.736Z,15.83
2019-03-12T05:42:51.215Z,16.00
2019-03-12T05:45:19.700Z,12.53
2019-03-12T05:47:48.279Z,11.60
2019-03-12T05:50:18.135Z,15.10
2019-03-12T05:52:48.998Z,16.70
2019-03-12T05:55:17.080Z,15.13
2019-03-12T05:57:45.560Z,15.30
2019-03-12T06:00:19.844Z,13.97
2019-03-12T06:02:48.380Z,12.23
2019-03-12T06:05:16.999Z,13.77
2019-03-12T06:07:45.489Z,16.00
2019-03-12T06:10:15.613Z,11.00
2019-03-12T06:12:44.356Z,13.43
2019-03-12T06:15:14.486Z,11.80
2019-03-12T06:17:43.008Z,13.93
2019-03-12T06:20:13.013Z,14.97
2019-03-12T06:22:41.560Z,12.27
2019-03-12T06:25:10.261Z,14.27
2019-03-12T06:27:38.794Z,11.87
2019-03-12T06:30:13.105Z,16.13
2019-03-12T06:32:48.987Z,14.93
2019-03-12T06:35:24.901Z,13.80
2019-03-12T06:37:55.065Z,13.50
2019-03-12T06:40:27.916Z,12.17
2019-03-12T06:43:14.319Z,11.97
2019-03-12T06:45:53.784Z,11.80
2019-03-12T06:48:23.978Z,11.57
2019-03-12T06:51:00.139Z,12.17
2019-03-12T06:53:46.692Z,15.60
2019-03-12T06:56:19.572Z,11.47
2019-03-12T06:58:58.904Z,18.90
2019-03-12T07:01:29.090Z,14.57
2019-03-12T07:04:08.138Z,14.20
2019-03-12T07:06:54.494Z,14.13
2019-03-12T07:09:41.081Z,10.87
2019-03-12T07:12:20.219Z,13.07
2019-03-12T07:14:59.110Z,17.30
2019-03-12T07:17:31.930Z,12.80
2019-03-12T07:20:17.968Z,19.93
2019-03-12T07:22:48.096Z,16.53
2019-03-12T07:25:20.923Z,19.43
2019-03-12T07:27:51.096Z,14.63
2019-03-12T07:30:21.377Z,17.50
2019-03-12T07:32:56.282Z,17.00
2019-03-12T07:35:26.001Z,11.73
2019-03-12T07:37:59.253Z,16.70
2019-03-12T07:40:45.213Z,15.07
2019-03-12T07:43:15.331Z,13.27
2019-03-12T07:45:45.510Z,17.30
2019-03-12T07:48:21.857Z,18.17
2019-03-12T07:51:00.874Z,14.30
2019-03-12T07:53:34.116Z,15.40
2019-03-12T07:56:04.266Z,15.43
2019-03-12T07:58:46.546Z,15.80
2019-03-12T08:01:16.657Z,19.83
2019-03-12T08:03:46.796Z,13.70
2019-03-12T08:06:29.189Z,15.27
2019-03-12T08:08:59.336Z,14.87
2019-03-12T08:11:29.453Z,17.13
2019-03-12T08:14:05.330Z,13.70
2019-03-12T08:16:35.435Z,13.90
2019-03-12T08:19:05.569Z,15.03
2019-03-12T08:21:44.734Z,12.70
2019-03-12T08:24:31.586Z,12.33
2019-03-12T08:27:14.107Z,14.70
2019-03-12T08:29:44.266Z,21.93
2019-03-12T08:32:17.374Z,11.63
2019-03-12T08:35:03.493Z,15.90
2019-03-12T08:37:51.838Z,14.57
2019-03-12T08:40:37.093Z,15.13
2019-03-12T08:43:07.239Z,14.60
2019-03-12T08:45:37.382Z,13.43
2019-03-12T08:48:16.688Z,18.63
2019-03-12T08:50:46.805Z,16.70
2019-03-12T08:53:19.877Z,12.63
2019-03-12T08:56:06.216Z,11.53
2019-03-12T08:58:36.348Z,13.23
2019-03-12T09:01:23.049Z,17.13
2019-03-12T09:03:58.979Z,13.43
2019-03-12T09:06:45.271Z,9.90
2019-03-12T09:09:18.160Z,12.43
2019-03-12T09:11:50.977Z,11.77
2019-03-12T09:14:21.140Z,12.30
2019-03-12T09:17:02.957Z,10.70
2019-03-12T09:19:33.107Z,13.90
2019-03-12T09:22:06.354Z,14.43
2019-03-12T09:24:36.507Z,10.63
2019-03-12T09:27:06.767Z,11.27
2019-03-12T09:29:36.892Z,10.03
2019-03-12T09:32:07.010Z,7.37
2019-03-12T09:34:39.877Z,7.90
2019-03-12T09:37:10.000Z,8.23
2019-03-12T09:39:42.846Z,7.57
2019-03-12T09:42:27.909Z,5.60
2019-03-12T09:44:58.039Z,9.70
2019-03-12T09:47:44.327Z,6.60
2019-03-12T09:50:26.535Z,6.90
2019-03-12T09:53:02.088Z,8.20
2019-03-12T09:55:48.549Z,7.47
2019-03-12T09:58:30.512Z,5.43
2019-03-12T10:01:00.666Z,8.97
2019-03-12T10:03:42.532Z,4.50
2019-03-12T10:06:15.379Z,5.90
2019-03-12T10:08:48.576Z,8.63
2019-03-12T10:11:34.088Z,6.63
2019-03-12T10:14:20.623Z,6.60
2019-03-12T10:16:53.438Z,4.83
2019-03-12T10:19:39.773Z,5.97
2019-03-12T10:22:16.050Z,6.23
2019-03-12T10:24:52.383Z,3.90
2019-03-12T10:27:22.520Z,4.53
2019-03-12T10:29:52.746Z,4.70
2019-03-12T10:32:25.591Z,5.53
2019-03-12T10:34:58.414Z,3.77
2019-03-12T10:37:31.233Z,4.37
2019-03-12T10:40:14.868Z,8.70
2019-03-12T10:42:48.041Z,7.13
2019-03-12T10:45:23.709Z,7.43
2019-03-12T10:47:53.830Z,5.47
2019-03-12T10:50:22.671Z,5.73
2019-03-12T10:52:51.142Z,5.13
2019-03-12T10:55:19.647Z,5.13
2019-03-12T10:57:48.166Z,4.73
2019-03-12T11:00:18.491Z,3.53
2019-03-12T11:02:47.207Z,4.00
2019-03-12T11:05:15.942Z,4.40
2019-03-12T11:07:44.441Z,5.53
2019-03-12T11:10:17.853Z,6.47
2019-03-12T11:12:46.297Z,6.60
2019-03-12T11:15:16.007Z,5.97
2019-03-12T11:17:49.920Z,4.50
2019-03-12T11:20:17.116Z,6.20
2019-03-12T11:22:45.628Z,3.83
2019-03-12T11:25:25.912Z,6.30
2019-03-12T11:27:44.330Z,4.27
2019-03-12T11:30:15.779Z,4.57
2019-03-12T11:32:44.367Z,2.23
2019-03-12T11:35:13.052Z,5.73
2019-03-12T11:37:41.740Z,4.53
2019-03-12T11:40:21.962Z,3.53
2019-03-12T11:42:50.555Z,4.00
2019-03-12T11:45:20.661Z,3.67
2019-03-12T11:47:49.445Z,4.63
2019-03-12T11:50:21.005Z,4.70
2019-03-12T11:52:55.479Z,3.77
2019-03-12T11:55:19.926Z,6.27
2019-03-12T11:57:48.723Z,3.93
2019-03-12T12:00:24.419Z,7.43
2019-03-12T12:02:59.795Z,7.23
2019-03-12T12:05:23.321Z,3.47
2019-03-12T12:07:51.862Z,2.80
2019-03-12T12:10:20.447Z,3.73
2019-03-12T12:12:48.998Z,2.20
2019-03-12T12:15:17.479Z,5.00
2019-03-12T12:17:49.087Z,4.90
2019-03-12T12:20:28.749Z,3.33
2019-03-12T12:22:47.304Z,2.37
2019-03-12T12:25:19.852Z,4.27
2019-03-12T12:27:49.857Z,3.47
2019-03-12T12:30:22.528Z,3.70
2019-03-12T12:32:51.082Z,5.17
2019-03-12T12:35:19.617Z,4.20
2019-03-12T12:37:48.119Z,3.47
2019-03-12T12:40:18.045Z,4.37
2019-03-12T12:42:46.554Z,4.63
2019-03-12T12:45:17.456Z,4.53
2019-03-12T12:47:45.933Z,3.37
2019-03-12T12:50:15.043Z,4.47
2019-03-12T12:52:44.535Z,2.47
2019-03-12T12:55:14.712Z,4.60
2019-03-12T12:57:43.279Z,3.63
2019-03-12T13:00:20.566Z,5.37
2019-03-12T13:02:49.322Z,6.93
2019-03-12T13:05:18.394Z,4.03
2019-03-12T13:07:46.900Z,8.57
2019-03-12T13:10:21.066Z,7.23
2019-03-12T13:12:49.557Z,3.30
2019-03-12T13:15:18.106Z,3.27
2019-03-12T13:17:46.662Z,7.37
2019-03-12T13:20:15.768Z,4.07
2019-03-12T13:22:44.267Z,4.30
2019-03-12T13:25:14.951Z,5.53
2019-03-12T13:27:43.612Z,8.27
2019-03-12T13:30:19.976Z,4.07
2019-03-12T13:32:48.485Z,3.97
2019-03-12T13:35:18.316Z,3.57
2019-03-12T13:37:47.633Z,5.00
2019-03-12T13:40:18.594Z,2.80
2019-03-12T13:42:47.145Z,2.37
2019-03-12T13:45:17.975Z,2.17
2019-03-12T13:47:46.562Z,5.37
2019-03-12T13:50:15.348Z,4.90
2019-03-12T13:52:43.899Z,6.37
2019-03-12T13:55:16.892Z,3.53
2019-03-12T13:57:45.607Z,5.13
2019-03-12T14:00:16.561Z,3.47
2019-03-12T14:02:45.556Z,5.13
2019-03-12T14:05:14.395Z,4.77
2019-03-12T14:07:43.009Z,6.20
2019-03-12T14:10:14.706Z,8.03
2019-03-12T14:12:43.321Z,4.87
2019-03-12T14:15:15.177Z,5.17
2019-03-12T14:17:43.698Z,5.67
2019-03-12T14:20:50.164Z,6.77
2019-03-12T14:23:28.344Z,4.97
2019-03-12T14:25:57.074Z,5.43
2019-03-12T14:28:25.710Z,9.10
2019-03-12T14:30:54.190Z,6.80
2019-03-12T14:33:22.829Z,4.60
2019-03-12T14:35:52.375Z,11.20
2019-03-12T14:38:21.108Z,7.73
2019-03-12T14:40:49.808Z,8.07
2019-03-12T14:43:18.421Z,10.13
2019-03-12T14:45:51.551Z,8.07
2019-03-12T14:48:39.330Z,10.47
2019-03-12T14:51:39.631Z,7.70
2019-03-12T14:54:11.157Z,8.60
2019-03-12T14:56:39.805Z,7.77
2019-03-12T14:59:08.374Z,10.47
2019-03-12T15:01:36.858Z,9.27
2019-03-12T15:04:05.523Z,9.03
2019-03-12T15:06:34.491Z,8.47
2019-03-12T15:09:04.864Z,10.43
2019-03-12T15:11:33.366Z,7.80
2019-03-12T15:14:01.879Z,7.93
2019-03-12T15:16:30.387Z,8.77
2019-03-12T15:18:58.887Z,9.70
2019-03-12T15:21:27.357Z,9.50
2019-03-12T15:23:55.850Z,8.53
2019-03-12T15:26:24.385Z,11.97
2019-03-12T15:28:52.997Z,9.17
2019-03-12T15:31:21.483Z,9.80
2019-03-12T15:33:49.983Z,8.80
2019-03-12T15:36:18.455Z,8.27
2019-03-12T15:38:47.039Z,8.60
2019-03-12T15:41:15.513Z,6.10
2019-03-12T15:43:44.111Z,8.20
2019-03-12T15:46:12.638Z,8.77
2019-03-12T15:48:41.142Z,6.97
2019-03-12T15:51:09.623Z,9.50
2019-03-12T15:53:38.128Z,9.37
2019-03-12T15:56:06.602Z,8.57
2019-03-12T15:58:35.096Z,9.43
2019-03-12T16:01:03.637Z,9.47
2019-03-12T16:03:32.139Z,11.37
2019-03-12T16:06:00.683Z,7.90
2019-03-12T16:08:29.180Z,8.17
2019-03-12T16:10:58.613Z,7.63
2019-03-12T16:13:27.322Z,7.90
2019-03-12T16:15:55.834Z,9.37
2019-03-12T16:18:24.359Z,7.03
2019-03-12T16:20:52.772Z,8.03
2019-03-12T16:23:21.338Z,9.43
2019-03-12T16:25:49.824Z,7.73
2019-03-12T16:28:18.322Z,8.13
2019-03-12T16:30:46.799Z,11.70
2019-03-12T16:33:15.307Z,6.07
2019-03-12T16:35:43.764Z,7.73
2019-03-12T16:38:12.279Z,7.63
2019-03-12T16:40:40.755Z,9.27
2019-03-12T16:43:09.207Z,8.23
2019-03-12T16:45:37.691Z,9.50
2019-03-12T16:48:06.180Z,6.23
2019-03-12T16:50:34.684Z,6.93
2019-03-12T16:53:03.169Z,11.43
2019-03-12T16:55:31.856Z,8.57
2019-03-12T16:58:00.394Z,6.03
2019-03-12T17:00:29.039Z,9.90
2019-03-12T17:02:57.531Z,9.07
2019-03-12T17:05:26.605Z,11.03
2019-03-12T17:07:55.239Z,7.77
2019-03-12T17:10:23.779Z,7.07
2019-03-12T17:12:52.305Z,7.00
2019-03-12T17:15:31.179Z,6.13
2019-03-12T17:17:59.636Z,7.77
2019-03-12T17:20:28.184Z,6.13
2019-03-12T17:22:56.700Z,7.07
2019-03-12T17:25:25.200Z,8.53
2019-03-12T17:27:53.656Z,6.70
2019-03-12T17:30:23.368Z,7.23
2019-03-12T17:32:52.047Z,6.33
2019-03-12T17:35:32.622Z,3.80
2019-03-12T17:38:01.106Z,7.43
2019-03-12T17:40:29.680Z,6.80
2019-03-12T17:42:58.264Z,8.80
2019-03-12T17:45:26.772Z,6.93
2019-03-12T17:47:55.275Z,9.43
2019-03-12T17:50:23.821Z,5.10
2019-03-12T17:52:53.298Z,8.90
2019-03-12T17:55:21.772Z,8.03
2019-03-12T17:57:50.885Z,7.10
2019-03-12T18:00:28.118Z,8.13
2019-03-12T18:02:55.668Z,7.67
2019-03-12T18:05:24.171Z,7.37
2019-03-12T18:07:52.639Z,6.97
2019-03-12T18:10:21.149Z,7.90
2019-03-12T18:12:49.624Z,6.93
2019-03-12T18:15:21.625Z,8.87
2019-03-12T18:17:50.077Z,10.77
2019-03-12T18:20:22.697Z,7.37
2019-03-12T18:22:51.236Z,8.07
2019-03-12T18:25:30.499Z,9.23
2019-03-12T18:27:58.971Z,5.70
2019-03-12T18:30:27.554Z,6.07
2019-03-12T18:32:56.047Z,5.50
2019-03-12T18:35:24.604Z,7.70
2019-03-12T18:37:53.078Z,6.33
2019-03-12T18:40:26.223Z,9.17
2019-03-12T18:42:54.894Z,5.43
2019-03-12T18:45:31.977Z,6.97
2019-03-12T18:48:00.457Z,8.47
2019-03-12T18:50:28.948Z,11.67
2019-03-12T18:52:57.423Z,6.77
2019-03-12T18:55:37.999Z,10.33
2019-03-12T18:58:06.887Z,6.70
2019-03-12T19:00:36.195Z,4.43
2019-03-12T19:03:04.921Z,6.73
2019-03-12T19:05:33.412Z,7.77
2019-03-12T19:08:01.936Z,5.97
2019-03-12T19:10:30.522Z,7.67
2019-03-12T19:12:58.982Z,5.83
2019-03-12T19:15:27.523Z,4.73
2019-03-12T19:17:55.983Z,6.70
2019-03-12T19:20:24.449Z,7.70
2019-03-12T19:22:52.922Z,9.87
2019-03-12T19:25:29.377Z,6.77
2019-03-12T19:28:00.280Z,5.13
2019-03-12T19:30:28.094Z,6.97
2019-03-12T19:33:01.501Z,5.97
2019-03-12T19:35:31.522Z,6.73
2019-03-12T19:38:01.227Z,6.87
2019-03-12T19:40:38.505Z,5.47
2019-03-12T19:43:06.998Z,7.57
2019-03-12T19:45:35.531Z,7.17
2019-03-12T19:48:04.052Z,9.50
2019-03-12T19:50:32.647Z,7.90
2019-03-12T19:53:01.218Z,8.07
2019-03-12T19:55:44.660Z,6.80
2019-03-12T19:58:13.353Z,5.27
2019-03-12T20:00:41.987Z,5.13
2019-03-12T20:03:14.756Z,6.93
2019-03-12T20:05:40.738Z,6.93
2019-03-12T20:08:09.209Z,7.03
2019-03-12T20:11:03.477Z,6.80
2019-03-12T20:13:46.363Z,5.80
2019-03-12T20:16:40.158Z,6.43
2019-03-12T20:19:45.032Z,6.27
2019-03-12T20:22:25.408Z,9.13
2019-03-12T20:25:30.428Z,4.70
2019-03-12T20:28:33.930Z,6.63
2019-03-12T20:31:08.552Z,6.50
2019-03-12T20:34:02.965Z,6.23
2019-03-12T20:36:53.891Z,9.37
2019-03-12T20:39:48.202Z,7.57
2019-03-12T20:42:43.998Z,5.83
2019-03-12T20:45:27.536Z,5.37
2019-03-12T20:48:28.136Z,5.80
2019-03-12T20:51:26.038Z,9.13
2019-03-12T20:54:14.350Z,8.70
2019-03-12T20:57:01.305Z,5.03
2019-03-12T21:00:08.785Z,6.50
2019-03-12T21:03:03.343Z,7.73
2019-03-12T21:05:37.752Z,8.80
2019-03-12T21:08:42.709Z,7.87
2019-03-12T21:11:23.493Z,7.70
2019-03-12T21:14:15.583Z,4.60
2019-03-12T21:16:49.683Z,8.90
2019-03-12T21:19:54.385Z,3.93
2019-03-12T21:22:46.874Z,6.63
2019-03-12T21:25:21.430Z,6.67
2019-03-12T21:27:55.609Z,6.33
2019-03-12T21:30:26.198Z,6.83
2019-03-12T21:32:54.749Z,7.30
2019-03-12T21:35:23.260Z,4.87
2019-03-12T21:37:51.885Z,3.90
2019-03-12T21:40:20.365Z,6.97
2019-03-12T21:42:48.950Z,6.27
2019-03-12T21:45:17.486Z,6.17
2019-03-12T21:47:45.994Z,12.80
2019-03-12T21:50:14.576Z,6.57
2019-03-12T21:52:43.113Z,8.70
2019-03-12T21:55:13.895Z,9.73
2019-03-12T21:57:42.402Z,7.67
2019-03-12T22:00:19.358Z,3.60
2019-03-12T22:02:47.883Z,5.97
2019-03-12T22:05:16.326Z,5.93
2019-03-12T22:07:44.874Z,5.87
2019-03-12T22:10:13.529Z,5.57
2019-03-12T22:12:42.137Z,7.17
2019-03-12T22:15:12.881Z,5.13
2019-03-12T22:17:41.543Z,5.53
2019-03-12T22:20:12.302Z,7.67
2019-03-12T22:22:42.574Z,7.13
2019-03-12T22:25:13.841Z,4.30
2019-03-12T22:27:42.545Z,4.70
2019-03-12T22:30:23.226Z,5.87
2019-03-12T22:32:51.708Z,7.77
2019-03-12T22:35:20.187Z,5.17
2019-03-12T22:37:48.756Z,3.50
2019-03-12T22:40:17.281Z,4.80
2019-03-12T22:42:45.800Z,6.23
2019-03-12T22:45:14.556Z,4.47
2019-03-12T22:47:43.024Z,5.30
2019-03-12T22:50:17.615Z,5.57
2019-03-12T22:52:46.099Z,4.40
2019-03-12T22:55:15.047Z,4.30
2019-03-12T22:57:43.487Z,3.47
2019-03-12T23:00:14.117Z,5.47
2019-03-12T23:02:42.802Z,3.93
2019-03-12T23:05:12.001Z,6.23
2019-03-12T23:07:40.486Z,5.83
2019-03-12T23:10:12.953Z,6.10
2019-03-12T23:12:41.436Z,4.67
2019-03-12T23:15:19.782Z,4.17
2019-03-12T23:17:48.260Z,2.87
2019-03-12T23:20:19.594Z,3.27
2019-03-12T23:22:48.150Z,5.77
2019-03-12T23:25:16.658Z,5.57
2019-03-12T23:27:45.126Z,6.07
2019-03-12T23:30:18.242Z,3.60
2019-03-12T23:32:46.715Z,4.57
2019-03-12T23:35:15.551Z,3.77
2019-03-12T23:37:44.088Z,3.93
2019-03-12T23:40:17.787Z,3.47
2019-03-12T23:42:46.363Z,2.83
2019-03-12T23:45:16.496Z,6.60
2019-03-12T23:47:45.804Z,4.43
2019-03-12T23:50:16.612Z,3.93
2019-03-12T23:52:45.731Z,4.07
2019-03-12T23:55:19.217Z,5.27
2019-03-12T23:57:47.865Z,3.87
